createdAt,value
2023-12-05T00:02:15.138Z,18.02
2023-12-05T00:04:44.029Z,13.75
2023-12-05T00:07:20.715Z,11.60
2023-12-05T00:09:48.188Z,12.55
2023-12-05T00:12:18.172Z,12.40
2023-12-05T00:14:45.447Z,11.45
2023-12-05T00:17:17.580Z,11.90
2023-12-05T00:19:44.818Z,13.43
2023-12-05T00:22:17.457Z,12.10
2023-12-05T00:24:45.073Z,13.32
2023-12-05T00:27:17.314Z,12.80
2023-12-05T00:29:48.947Z,11.50
2023-12-05T00:32:18.674Z,10.85
2023-12-05T00:34:47.109Z,12.00
2023-12-05T00:37:17.310Z,12.98
2023-12-05T00:39:45.107Z,13.45
2023-12-05T00:42:14.757Z,18.95
2023-12-05T00:44:43.014Z,13.00
2023-12-05T00:47:10.409Z,15.00
2023-12-05T00:49:38.398Z,13.15
2023-12-05T00:52:08.691Z,14.93
2023-12-05T00:54:35.957Z,12.27
2023-12-05T00:57:03.396Z,19.45
2023-12-05T00:59:33.558Z,12.35
2023-12-05T01:02:03.998Z,13.93
2023-12-05T01:04:31.752Z,12.00
2023-12-05T01:07:00.301Z,12.38
2023-12-05T01:09:27.497Z,13.45
2023-12-05T01:11:54.652Z,11.73
2023-12-05T01:14:21.995Z,14.00
2023-12-05T01:16:49.116Z,13.52
2023-12-05T01:19:16.356Z,12.90
2023-12-05T01:21:43.826Z,11.43
2023-12-05T01:24:10.984Z,17.75
2023-12-05T01:26:38.145Z,11.98
2023-12-05T01:29:06.369Z,12.15
2023-12-05T01:31:33.906Z,13.18
2023-12-05T01:34:01.362Z,12.75
2023-12-05T01:36:32.265Z,12.35
2023-12-05T01:38:59.384Z,13.90
2023-12-05T01:41:27.213Z,13.38
2023-12-05T01:43:54.341Z,12.57
2023-12-05T01:46:21.829Z,12.77
2023-12-05T01:48:49.487Z,12.77
2023-12-05T01:51:17.752Z,16.15
2023-12-05T01:53:45.302Z,14.48
2023-12-05T01:56:13.959Z,14.93
2023-12-05T01:58:41.413Z,13.38
2023-12-05T02:01:11.285Z,13.60
2023-12-05T02:03:40.272Z,14.75
2023-12-05T02:06:08.506Z,11.45
2023-12-05T02:08:37.361Z,10.38
2023-12-05T02:11:04.765Z,11.65
2023-12-05T02:13:32.096Z,11.00
2023-12-05T02:16:22.917Z,12.40
2023-12-05T02:19:04.486Z,12.60
2023-12-05T02:21:39.335Z,12.65
2023-12-05T02:24:23.753Z,14.38
2023-12-05T02:27:22.477Z,14.30
2023-12-05T02:29:53.384Z,12.43
2023-12-05T02:32:20.582Z,13.82
2023-12-05T02:34:48.288Z,12.52
2023-12-05T02:38:06.533Z,13.00
2023-12-05T02:40:38.936Z,12.77
2023-12-05T02:43:13.096Z,12.60
2023-12-05T02:45:41.766Z,12.10
2023-12-05T02:48:11.828Z,12.55
2023-12-05T02:50:39.378Z,11.05
2023-12-05T02:53:06.935Z,11.52
2023-12-05T02:55:37.183Z,13.07
2023-12-05T02:58:06.718Z,12.45
2023-12-05T03:00:34.046Z,13.10
2023-12-05T03:03:01.160Z,11.55
2023-12-05T03:05:28.811Z,13.15
2023-12-05T03:07:56.196Z,13.25
2023-12-05T03:10:23.641Z,11.95
2023-12-05T03:12:50.878Z,13.70
2023-12-05T03:15:18.115Z,13.70
2023-12-05T03:17:45.527Z,14.90
2023-12-05T03:20:12.952Z,11.98
2023-12-05T03:22:40.469Z,21.95
2023-12-05T03:25:07.939Z,14.60
2023-12-05T03:27:36.255Z,12.30
2023-12-05T03:30:04.427Z,17.38
2023-12-05T03:32:34.455Z,13.00
2023-12-05T03:35:01.981Z,13.70
2023-12-05T03:37:29.321Z,12.35
2023-12-05T03:39:56.551Z,13.52
2023-12-05T03:42:24.782Z,11.45
2023-12-05T03:44:51.905Z,12.35
2023-12-05T03:47:19.132Z,11.85
2023-12-05T03:49:46.556Z,12.00
2023-12-05T03:52:17.246Z,11.85
2023-12-05T03:54:44.723Z,12.63
2023-12-05T03:57:14.655Z,11.65
2023-12-05T03:59:43.378Z,18.05
2023-12-05T04:02:12.877Z,12.75
2023-12-05T04:04:43.161Z,12.73
2023-12-05T04:07:10.443Z,12.20
2023-12-05T04:09:37.815Z,17.77
2023-12-05T04:12:05.315Z,13.57
2023-12-05T04:14:32.792Z,12.68
2023-12-05T04:17:00.144Z,11.77
2023-12-05T04:19:28.436Z,11.65
2023-12-05T04:21:55.724Z,11.52
2023-12-05T04:24:23.178Z,12.65
2023-12-05T04:26:50.318Z,14.07
2023-12-05T04:29:17.511Z,12.02
2023-12-05T04:31:44.860Z,13.55
2023-12-05T04:34:12.340Z,12.50
2023-12-05T04:36:40.141Z,11.82
2023-12-05T04:39:08.636Z,12.40
2023-12-05T04:41:36.967Z,12.30
2023-12-05T04:44:05.282Z,12.85
2023-12-05T04:46:32.822Z,14.05
2023-12-05T04:49:00.022Z,14.02
2023-12-05T04:51:28.014Z,18.17
2023-12-05T04:53:55.489Z,13.85
2023-12-05T04:56:23.335Z,15.18
2023-12-05T04:58:50.442Z,14.85
2023-12-05T05:01:20.922Z,13.70
2023-12-05T05:03:48.439Z,17.83
2023-12-05T05:06:16.051Z,14.13
2023-12-05T05:08:43.856Z,13.23
2023-12-05T05:11:11.135Z,14.00
2023-12-05T05:13:45.896Z,16.52
2023-12-05T05:16:17.360Z,14.85
2023-12-05T05:18:44.605Z,14.60
2023-12-05T05:21:14.287Z,14.88
2023-12-05T05:23:41.469Z,14.85
2023-12-05T05:26:09.424Z,13.88
2023-12-05T05:28:39.344Z,15.10
2023-12-05T05:31:07.052Z,15.57
2023-12-05T05:33:34.610Z,14.43
2023-12-05T05:36:01.979Z,14.52
2023-12-05T05:38:32.264Z,13.63
2023-12-05T05:41:07.939Z,14.30
2023-12-05T05:43:35.940Z,14.00
2023-12-05T05:46:03.460Z,14.20
2023-12-05T05:48:33.603Z,16.33
2023-12-05T05:51:01.772Z,14.23
2023-12-05T05:53:31.381Z,16.17
2023-12-05T05:56:01.883Z,14.23
2023-12-05T05:58:31.783Z,16.70
2023-12-05T06:00:59.144Z,18.50
2023-12-05T06:03:29.441Z,18.65
2023-12-05T06:06:00.111Z,19.63
2023-12-05T06:08:27.377Z,16.83
2023-12-05T06:10:54.647Z,16.52
2023-12-05T06:13:22.020Z,15.68
2023-12-05T06:15:49.194Z,16.48
2023-12-05T06:18:18.946Z,15.25
2023-12-05T06:20:47.476Z,14.52
2023-12-05T06:23:15.348Z,13.90
2023-12-05T06:25:42.656Z,19.85
2023-12-05T06:28:12.111Z,17.38
2023-12-05T06:30:39.472Z,15.00
2023-12-05T06:33:06.742Z,14.35
2023-12-05T06:35:36.721Z,15.63
2023-12-05T06:38:03.844Z,17.48
2023-12-05T06:40:31.286Z,18.75
2023-12-05T06:42:58.835Z,18.80
2023-12-05T06:45:26.129Z,15.65
2023-12-05T06:47:53.325Z,16.30
2023-12-05T06:50:20.497Z,13.88
2023-12-05T06:52:47.606Z,13.93
2023-12-05T06:55:15.223Z,13.18
2023-12-05T06:57:42.434Z,15.02
2023-12-05T07:00:10.193Z,15.90
2023-12-05T07:02:37.547Z,16.88
2023-12-05T07:05:06.004Z,15.63
2023-12-05T07:07:33.819Z,15.68
2023-12-05T07:10:01.248Z,14.15
2023-12-05T07:12:31.524Z,14.75
2023-12-05T07:14:59.061Z,13.35
2023-12-05T07:17:26.331Z,13.48
2023-12-05T07:19:53.589Z,12.93
2023-12-05T07:22:20.829Z,13.00
2023-12-05T07:24:48.049Z,14.98
2023-12-05T07:27:17.568Z,17.30
2023-12-05T07:29:44.902Z,17.90
2023-12-05T07:32:17.267Z,14.23
2023-12-05T07:34:44.510Z,13.95
2023-12-05T07:37:17.623Z,14.95
2023-12-05T07:39:44.933Z,14.77
2023-12-05T07:42:17.366Z,22.55
2023-12-05T07:44:44.490Z,14.52
2023-12-05T07:47:17.572Z,17.73
2023-12-05T07:49:48.616Z,14.13
2023-12-05T07:52:17.573Z,15.55
2023-12-05T07:54:44.742Z,17.30
2023-12-05T07:57:23.228Z,16.02
2023-12-05T07:59:53.375Z,14.27
2023-12-05T08:02:22.434Z,15.98
2023-12-05T08:04:49.772Z,14.55
2023-12-05T08:07:18.349Z,15.63
2023-12-05T08:09:45.787Z,13.93
2023-12-05T08:12:17.672Z,14.80
2023-12-05T08:14:44.876Z,13.63
2023-12-05T08:17:17.281Z,13.43
2023-12-05T08:19:44.432Z,13.00
2023-12-05T08:22:14.987Z,12.90
2023-12-05T08:24:43.202Z,13.55
2023-12-05T08:27:10.489Z,13.82
2023-12-05T08:29:43.801Z,13.50
2023-12-05T08:32:14.694Z,14.18
2023-12-05T08:34:44.805Z,11.85
2023-12-05T08:37:14.856Z,11.48
2023-12-05T08:39:43.121Z,11.80
2023-12-05T08:42:10.535Z,14.15
2023-12-05T08:44:43.776Z,14.70
2023-12-05T08:47:13.009Z,16.73
2023-12-05T08:49:43.923Z,13.35
2023-12-05T08:52:11.293Z,13.75
2023-12-05T08:54:43.486Z,14.18
2023-12-05T08:57:14.735Z,13.05
2023-12-05T08:59:45.584Z,15.15
2023-12-05T09:02:17.723Z,16.27
2023-12-05T09:04:45.377Z,14.70
2023-12-05T09:07:17.684Z,15.77
2023-12-05T09:09:45.003Z,15.65
2023-12-05T09:12:17.345Z,16.55
2023-12-05T09:14:44.857Z,18.00
2023-12-05T09:17:19.731Z,15.57
2023-12-05T09:19:47.086Z,18.08
2023-12-05T09:22:18.688Z,15.98
2023-12-05T09:27:17.350Z,15.43
2023-12-05T09:29:50.212Z,15.40
2023-12-05T09:32:19.654Z,15.25
2023-12-05T09:34:47.138Z,16.30
2023-12-05T09:37:17.412Z,19.20
2023-12-05T09:39:44.828Z,18.60
2023-12-05T09:42:17.758Z,18.50
2023-12-05T09:44:48.805Z,15.93
2023-12-05T09:47:21.662Z,16.48
2023-12-05T09:49:49.968Z,15.25
2023-12-05T09:52:17.706Z,16.50
2023-12-05T09:54:45.481Z,15.30
2023-12-05T09:57:17.613Z,16.17
2023-12-05T09:59:44.872Z,13.23
2023-12-05T10:02:17.762Z,14.90
2023-12-05T10:04:46.697Z,15.27
2023-12-05T10:07:17.190Z,15.02
2023-12-05T10:09:44.990Z,19.52
2023-12-05T10:12:18.157Z,17.15
2023-12-05T10:14:47.007Z,15.50
2023-12-05T10:17:17.242Z,17.98
2023-12-05T10:19:45.054Z,22.67
2023-12-05T10:22:17.600Z,11.15
2023-12-05T10:24:46.870Z,11.20
2023-12-05T10:27:16.935Z,10.98
2023-12-05T10:29:44.212Z,9.77
2023-12-05T10:32:17.572Z,9.30
2023-12-05T10:34:52.843Z,9.70
2023-12-05T10:37:24.739Z,8.90
2023-12-05T10:39:54.666Z,9.45
2023-12-05T10:42:29.191Z,8.48
2023-12-05T10:44:57.097Z,12.35
2023-12-05T10:47:28.934Z,12.43
2023-12-05T10:49:56.898Z,13.18
2023-12-05T10:52:25.769Z,12.55
2023-12-05T10:54:59.498Z,14.52
2023-12-05T10:57:35.753Z,13.85
2023-12-05T11:00:05.117Z,14.15
2023-12-05T11:02:32.576Z,14.95
2023-12-05T11:05:05.836Z,18.35
2023-12-05T11:07:33.390Z,19.13
2023-12-05T11:10:01.176Z,17.75
2023-12-05T11:12:29.660Z,15.25
2023-12-05T11:14:58.982Z,16.10
2023-12-05T11:18:21.661Z,15.43
2023-12-05T11:21:01.894Z,13.80
2023-12-05T11:23:47.247Z,16.20
2023-12-05T11:26:45.658Z,15.55
2023-12-05T11:29:49.046Z,17.08
2023-12-05T11:32:32.124Z,18.85
2023-12-05T11:35:05.681Z,18.75
2023-12-05T11:37:54.961Z,17.08
2023-12-05T11:40:22.718Z,18.60
2023-12-05T11:43:09.980Z,17.73
2023-12-05T11:45:39.403Z,18.42
2023-12-05T11:48:09.968Z,15.75
2023-12-05T11:50:46.321Z,16.65
2023-12-05T11:53:15.849Z,19.05
2023-12-05T11:55:45.027Z,17.55
2023-12-05T11:58:32.709Z,20.42
2023-12-05T12:01:10.608Z,16.50
2023-12-05T12:03:56.352Z,16.33
2023-12-05T12:06:26.285Z,17.42
2023-12-05T12:08:55.509Z,17.05
2023-12-05T12:11:23.595Z,16.27
2023-12-05T12:13:51.753Z,17.25
2023-12-05T12:16:20.929Z,16.77
2023-12-05T12:18:53.719Z,17.02
2023-12-05T12:21:32.721Z,17.75
2023-12-05T12:24:01.131Z,18.63
2023-12-05T12:26:33.649Z,19.83
2023-12-05T12:29:11.020Z,20.48
2023-12-05T12:31:39.099Z,20.10
2023-12-05T12:34:09.888Z,19.05
2023-12-05T12:36:38.898Z,18.95
2023-12-05T12:39:06.193Z,19.90
2023-12-05T12:41:33.356Z,18.35
2023-12-05T12:44:00.759Z,20.70
2023-12-05T12:46:27.857Z,20.00
2023-12-05T12:48:58.127Z,19.40
2023-12-05T12:51:25.325Z,19.88
2023-12-05T12:53:52.693Z,18.52
2023-12-05T12:56:19.875Z,19.88
2023-12-05T12:58:48.950Z,18.58
2023-12-05T13:01:16.294Z,17.92
2023-12-05T13:03:45.440Z,17.38
2023-12-05T13:06:13.821Z,17.70
2023-12-05T13:08:41.235Z,22.10
2023-12-05T13:11:09.212Z,17.42
2023-12-05T13:13:36.707Z,17.80
2023-12-05T13:16:06.563Z,18.60
2023-12-05T13:18:45.603Z,16.52
2023-12-05T13:21:14.083Z,18.10
2023-12-05T13:23:45.013Z,17.80
2023-12-05T13:26:13.228Z,18.17
2023-12-05T13:28:41.015Z,16.63
2023-12-05T13:31:09.398Z,18.20
2023-12-05T13:33:36.985Z,17.70
2023-12-05T13:36:04.911Z,18.23
2023-12-05T13:38:32.093Z,22.23
2023-12-05T13:41:02.871Z,16.23
2023-12-05T13:43:33.191Z,17.13
2023-12-05T13:46:02.806Z,16.95
2023-12-05T13:48:30.394Z,17.92
2023-12-05T13:51:04.100Z,20.45
2023-12-05T13:53:31.297Z,18.83
2023-12-05T13:56:03.914Z,20.00
2023-12-05T13:58:31.206Z,19.77
2023-12-05T14:01:03.265Z,20.77
2023-12-05T14:03:31.001Z,19.73
2023-12-05T14:06:03.828Z,25.52
2023-12-05T14:08:31.049Z,20.55
2023-12-05T14:11:02.754Z,25.70
2023-12-05T14:13:32.083Z,23.73
2023-12-05T14:16:04.350Z,18.85
2023-12-05T14:18:32.967Z,18.33
2023-12-05T14:21:02.848Z,31.73
2023-12-05T14:23:30.136Z,22.05
2023-12-05T14:25:59.881Z,19.58
2023-12-05T14:28:29.285Z,21.63
2023-12-05T14:31:02.560Z,18.13
2023-12-05T14:33:30.008Z,18.20
2023-12-05T14:36:00.313Z,16.58
2023-12-05T14:38:31.114Z,19.45
2023-12-05T14:41:02.991Z,19.90
2023-12-05T14:43:30.234Z,17.92
2023-12-05T14:46:02.688Z,17.33
2023-12-05T14:48:30.283Z,17.88
2023-12-05T14:51:00.474Z,20.40
2023-12-05T14:53:31.453Z,21.55
2023-12-05T14:56:02.790Z,19.50
2023-12-05T14:58:30.016Z,27.05
2023-12-05T15:01:03.555Z,18.92
2023-12-05T15:03:31.934Z,21.02
2023-12-05T15:06:02.396Z,20.58
2023-12-05T15:08:32.018Z,22.50
2023-12-05T15:11:02.555Z,22.35
2023-12-05T15:13:29.937Z,21.38
2023-12-05T15:16:03.223Z,20.75
2023-12-05T15:18:31.102Z,20.20
2023-12-05T15:21:02.742Z,19.77
2023-12-05T15:26:02.538Z,21.83
2023-12-05T15:28:30.293Z,21.35
2023-12-05T15:31:02.954Z,22.95
2023-12-05T15:33:30.479Z,23.50
2023-12-05T15:36:02.444Z,22.98
2023-12-05T15:38:30.567Z,23.85
2023-12-05T15:41:02.924Z,22.10
2023-12-05T15:43:30.113Z,22.15
2023-12-05T15:46:00.036Z,21.98
2023-12-05T15:48:43.634Z,20.98
2023-12-05T15:51:13.975Z,21.02
2023-12-05T15:53:42.797Z,23.27
2023-12-05T15:56:12.538Z,23.83
2023-12-05T15:58:40.508Z,21.50
2023-12-05T16:01:08.050Z,24.00
2023-12-05T16:03:35.873Z,25.10
2023-12-05T16:06:03.097Z,26.33
2023-12-05T16:08:30.288Z,22.20
2023-12-05T16:11:02.270Z,27.02
2023-12-05T16:13:29.728Z,22.15
2023-12-05T16:16:03.728Z,22.90
2023-12-05T16:18:31.246Z,26.17
2023-12-05T16:21:02.768Z,22.67
2023-12-05T16:26:02.339Z,25.05
2023-12-05T16:28:29.431Z,28.90
2023-12-05T16:30:58.347Z,27.83
2023-12-05T16:33:32.305Z,24.58
2023-12-05T16:36:03.267Z,28.65
2023-12-05T16:38:30.948Z,24.95
2023-12-05T16:41:04.051Z,25.92
2023-12-05T16:43:31.244Z,24.67
2023-12-05T16:46:02.838Z,37.13
2023-12-05T16:48:30.074Z,28.27
2023-12-05T16:51:00.356Z,29.60
2023-12-05T16:53:28.373Z,33.25
2023-12-05T16:55:56.028Z,30.25
2023-12-05T16:58:25.982Z,28.67
2023-12-05T17:00:53.334Z,29.25
2023-12-05T17:03:23.217Z,30.77
2023-12-05T17:05:50.830Z,29.60
2023-12-05T17:08:18.336Z,27.23
2023-12-05T17:10:45.989Z,28.73
2023-12-05T17:13:13.416Z,29.80
2023-12-05T17:15:42.659Z,29.60
2023-12-05T17:18:10.581Z,35.42
2023-12-05T17:20:38.432Z,40.53
2023-12-05T17:23:05.743Z,34.45
2023-12-05T17:25:33.177Z,37.95
2023-12-05T17:28:04.060Z,30.60
2023-12-05T17:30:34.677Z,30.40
2023-12-05T17:33:02.663Z,28.38
2023-12-05T17:35:30.320Z,31.30
2023-12-05T17:37:57.653Z,31.83
2023-12-05T17:40:24.789Z,30.15
2023-12-05T17:42:51.936Z,28.13
2023-12-05T17:45:20.349Z,28.75
2023-12-05T17:47:47.904Z,26.48
2023-12-05T17:50:15.357Z,30.75
2023-12-05T17:52:45.542Z,28.60
2023-12-05T17:55:14.011Z,25.90
2023-12-05T17:57:41.597Z,28.33
2023-12-05T18:00:09.757Z,28.98
2023-12-05T18:02:44.417Z,28.90
2023-12-05T18:05:11.676Z,27.35
2023-12-05T18:07:54.181Z,25.77
2023-12-05T18:10:25.742Z,25.55
2023-12-05T18:12:53.266Z,26.30
2023-12-05T18:15:20.801Z,27.48
2023-12-05T18:17:50.680Z,30.58
2023-12-05T18:20:18.095Z,27.70
2023-12-05T18:22:48.290Z,26.77
2023-12-05T18:25:16.007Z,26.70
2023-12-05T18:27:44.148Z,26.20
2023-12-05T18:30:11.731Z,27.58
2023-12-05T18:32:39.683Z,25.38
2023-12-05T18:35:07.287Z,26.83
2023-12-05T18:37:34.797Z,24.48
2023-12-05T18:40:03.785Z,30.30
2023-12-05T18:45:02.338Z,33.38
2023-12-05T18:47:29.524Z,26.55
2023-12-05T18:49:58.282Z,27.55
2023-12-05T18:52:25.989Z,25.42
2023-12-05T18:54:53.547Z,25.75
2023-12-05T18:57:21.530Z,15.77
2023-12-05T18:59:48.861Z,22.27
2023-12-05T19:02:16.279Z,25.75
2023-12-05T19:04:44.079Z,25.05
2023-12-05T19:07:14.095Z,17.98
2023-12-05T19:09:42.412Z,19.55
2023-12-05T19:12:09.622Z,24.95
2023-12-05T19:14:37.386Z,26.70
2023-12-05T19:17:06.905Z,15.13
2023-12-05T19:19:34.365Z,16.17
2023-12-05T19:22:03.877Z,14.57
2023-12-05T19:24:32.029Z,17.85
2023-12-05T19:27:00.833Z,13.68
2023-12-05T19:29:27.923Z,16.98
2023-12-05T19:31:55.369Z,14.00
2023-12-05T19:34:32.272Z,13.23
2023-12-05T19:37:07.506Z,12.88
2023-12-05T19:40:09.055Z,13.70
2023-12-05T19:42:39.137Z,14.52
2023-12-05T19:45:14.094Z,14.80
2023-12-05T19:47:59.280Z,14.77
2023-12-05T19:50:26.920Z,13.15
2023-12-05T19:52:54.294Z,13.23
2023-12-05T19:55:22.844Z,13.43
2023-12-05T19:57:50.141Z,14.38
2023-12-05T20:00:17.569Z,14.55
2023-12-05T20:02:44.658Z,13.07
2023-12-05T20:05:11.894Z,13.75
2023-12-05T20:07:39.483Z,14.02
2023-12-05T20:10:07.510Z,13.75
2023-12-05T20:12:34.966Z,15.73
2023-12-05T20:15:02.054Z,12.57
2023-12-05T20:17:29.729Z,12.85
2023-12-05T20:19:57.364Z,12.75
2023-12-05T20:22:29.643Z,13.57
2023-12-05T20:24:58.370Z,15.77
2023-12-05T20:27:25.939Z,13.38
2023-12-05T20:29:56.979Z,13.63
2023-12-05T20:32:24.923Z,13.93
2023-12-05T20:34:52.359Z,12.88
2023-12-05T20:37:19.670Z,25.88
2023-12-05T20:39:46.950Z,21.88
2023-12-05T20:42:14.077Z,16.63
2023-12-05T20:44:41.304Z,14.18
2023-12-05T20:47:08.812Z,15.55
2023-12-05T20:49:36.345Z,13.55
2023-12-05T20:52:04.621Z,14.10
2023-12-05T20:54:34.607Z,14.70
2023-12-05T20:57:04.892Z,13.90
2023-12-05T20:59:31.992Z,13.48
2023-12-05T21:02:00.951Z,16.13
2023-12-05T21:04:28.111Z,15.48
2023-12-05T21:06:55.504Z,15.32
2023-12-05T21:09:22.815Z,14.57
2023-12-05T21:11:50.742Z,14.30
2023-12-05T21:14:20.419Z,13.95
2023-12-05T21:16:48.303Z,14.57
2023-12-05T21:19:15.511Z,14.18
2023-12-05T21:21:45.618Z,13.70
2023-12-05T21:24:13.551Z,14.27
2023-12-05T21:26:44.861Z,14.20
2023-12-05T21:29:12.208Z,15.90
2023-12-05T21:31:42.159Z,14.48
2023-12-05T21:34:12.006Z,15.38
2023-12-05T21:36:39.363Z,13.77
2023-12-05T21:39:06.540Z,14.45
2023-12-05T21:41:36.447Z,13.25
2023-12-05T21:44:04.283Z,15.30
2023-12-05T21:46:32.698Z,16.90
2023-12-05T21:49:00.958Z,14.57
2023-12-05T21:51:29.751Z,17.23
2023-12-05T21:53:59.524Z,14.15
2023-12-05T21:56:28.388Z,14.38
2023-12-05T21:58:57.112Z,15.93
2023-12-05T22:01:24.820Z,14.55
2023-12-05T22:03:52.170Z,13.10
2023-12-05T22:06:19.321Z,15.13
2023-12-05T22:08:46.615Z,15.80
2023-12-05T22:11:13.865Z,15.70
2023-12-05T22:13:44.600Z,14.80
2023-12-05T22:16:13.042Z,16.55
2023-12-05T22:18:40.815Z,15.10
2023-12-05T22:21:08.262Z,14.52
2023-12-05T22:23:41.484Z,13.75
2023-12-05T22:26:09.868Z,15.25
2023-12-05T22:28:37.338Z,14.98
2023-12-05T22:31:07.908Z,14.60
2023-12-05T22:33:35.493Z,13.65
2023-12-05T22:36:03.500Z,14.35
2023-12-05T22:38:30.627Z,14.38
2023-12-05T22:41:02.854Z,14.68
2023-12-05T22:43:32.037Z,12.88
2023-12-05T22:46:10.227Z,17.35
2023-12-05T22:48:39.097Z,15.15
2023-12-05T22:51:10.973Z,14.25
2023-12-05T22:56:11.304Z,14.30
2023-12-05T22:58:38.515Z,14.88
2023-12-05T23:01:05.979Z,17.25
2023-12-05T23:03:34.476Z,15.77
2023-12-05T23:06:02.654Z,14.10
2023-12-05T23:08:30.122Z,14.43
2023-12-05T23:11:03.502Z,14.73
2023-12-05T23:13:31.011Z,17.60
2023-12-05T23:16:02.945Z,15.98
2023-12-05T23:18:30.209Z,19.33
2023-12-05T23:21:02.691Z,18.05
2023-12-05T23:23:30.352Z,19.02
2023-12-05T23:26:02.814Z,18.13
2023-12-05T23:28:30.489Z,18.73
2023-12-05T23:31:04.882Z,19.77
2023-12-05T23:33:32.718Z,16.77
2023-12-05T23:36:03.595Z,18.35
2023-12-05T23:38:30.674Z,18.77
2023-12-05T23:41:03.708Z,18.13
2023-12-05T23:43:32.936Z,18.58
2023-12-05T23:46:03.090Z,19.08
2023-12-05T23:48:30.808Z,22.88
2023-12-05T23:51:02.956Z,18.60
2023-12-05T23:53:30.125Z,17.85
2023-12-05T23:56:02.636Z,18.00
2023-12-05T23:58:32.485Z,17.83
